• Join FlightAware (Why Join?)
  • Login
  • US Flag 
01:01AM EDT


 

Airport Tracker/Info


-or-


 

Live Flight TrackerFlight Track Log ✈ VOZ187 ✈ 07-Apr-2013 ✈ NZAA / AKL - YBBN / BNE

Flight Track Log - Related Links

Times and Time Zones

All times are in EDT time to prevent confusion due to time zone crossing. See the VOZ187 flight status page for this flight to view local times or setup timezone preferences in your user account.

Time Position Orientation Groundspeed Altitude Reporting Facility
EDT Latitude Longitude Course Direction KTS MPH feet Rate Location/Type
02:55PM -37.0260 174.7340 252° West 174 200 900  Level FlightAware
02:56PM -37.0360 174.7000 250° West 209 241 2,900 3,420 Climbing FlightAware
02:56PM -37.0380 174.6860 260° West 222 255 3,200 1,560 Climbing FlightAware
02:56PM -37.0350 174.6640 280° West 247 284 3,700 1,980 Climbing FlightAware
02:56PM -37.0200 174.6240 295° West 273 314 4,700 1,920 Climbing FlightAware
02:57PM -37.0020 174.5780 296° West 317 365 5,500 2,400 Climbing FlightAware
02:57PM -36.9810 174.5260 297° West 332 382 7,100 3,120 Climbing FlightAware
02:58PM -36.9640 174.4820 296° West 337 388 8,400 2,820 Climbing FlightAware
02:58PM -36.9530 174.4550 297° West 345 397 9,000 3,000 Climbing FlightAware
02:59PM -36.9260 174.3850 296° West 343 395 11,200 3,120 Climbing FlightAware
03:00PM -36.8930 174.3010 296° West 353 406 13,500 2,820 Climbing FlightAware
03:00PM -36.8640 174.2270 296° West 367 422 15,200 2,580 Climbing FlightAware
03:01PM -36.8330 174.1490 296° West 374 430 17,000 2,700 Climbing FlightAware
03:02PM -36.7990 174.0630 296° West 375 432 19,100 2,520 Climbing FlightAware
03:02PM -36.7680 173.9850 296° West 379 436 20,600 2,100 Climbing FlightAware
03:03PM -36.7360 173.9040 296° West 389 448 21,900 1,860 Climbing FlightAware
03:04PM -36.6980 173.8100 297° West 405 466 23,300 1,740 Climbing FlightAware
03:04PM -36.6640 173.7260 297° West 412 474 24,400 1,560 Climbing FlightAware
03:05PM -36.6340 173.6500 296° West 418 481 25,300 1,500 Climbing FlightAware
03:06PM -36.5980 173.5610 297° West 431 496 26,300 1,500 Climbing FlightAware
03:06PM -36.5630 173.4730 296° West 436 502 27,300 1,560 Climbing FlightAware
03:07PM -36.5270 173.3840 297° West 437 503 28,400 1,620 Climbing FlightAware
03:08PM -36.4880 173.2870 297° West 435 501 29,600 1,800 Climbing FlightAware
03:08PM -36.4500 173.1960 297° West 425 489 31,000 1,800 Climbing FlightAware
03:09PM -36.4100 173.0980 297° West 417 480 32,200 1,440 Climbing FlightAware
03:10PM -36.3750 173.0130 297° West 415 478 33,100 1,320 Climbing FlightAware
03:10PM -36.3400 172.9260 297° West 415 478 34,000 1,200 Climbing FlightAware
03:11PM -36.3050 172.8410 297° West 415 478 34,700 1,080 Climbing FlightAware
03:12PM -36.2700 172.7570 297° West 411 473 35,500 900 Climbing FlightAware
03:13PM -36.2310 172.6620 297° West 409 471 36,000 300 Climbing FlightAware
03:13PM -36.1970 172.5790 297° West 408 470 36,000  Level FlightAware
03:14PM -36.1610 172.4930 297° West 406 467 36,000  Level FlightAware
03:15PM -36.1260 172.4100 298° West 405 466 36,000  Level FlightAware
03:15PM -36.0920 172.3280 297° West 404 465 36,000  Level FlightAware
03:16PM -36.0570 172.2450 298° West 406 467 36,000  Level FlightAware
03:17PM -36.0180 172.1510 297° West 405 466 36,000  Level FlightAware
03:17PM -35.9830 172.0680 298° West 405 466 36,000  Level FlightAware
03:18PM -35.9440 171.9760 298° West 406 467 36,000  Level FlightAware
03:19PM -35.9090 171.8940 298° West 407 468 36,000  Level FlightAware
03:19PM -35.8700 171.8010 297° West 406 467 36,000  Level FlightAware
03:20PM -35.8380 171.7270 298° West 412 474 36,000  Level FlightAware
03:21PM -35.7970 171.6310 298° West 412 474 36,000  Level FlightAware
03:22PM -35.7500 171.5220 298° West 411 473 36,000  Level FlightAware
03:22PM -35.7110 171.4310 298° West 411 473 36,000  Level FlightAware
03:23PM -35.6750 171.3460 298° West 411 473 36,000  Level FlightAware
03:24PM -35.6470 171.2780 297° West 411 473 36,000  Level FlightAware
03:25PM -35.5980 171.1680 299° West 411 473 36,000  Level FlightAware
03:25PM -35.5620 171.0840 298° West 405 466 36,000  Level FlightAware
03:26PM -35.5310 170.9990 294° West 404 465 36,000  Level FlightAware
03:27PM -35.5080 170.9350 294° West 404 465 36,000  Level FlightAware
03:27PM -35.4770 170.8450 293° West 404 465 36,000  Level FlightAware
03:28PM -35.4590 170.7910 292° West 404 465 36,000  Level FlightAware
03:29PM -35.4280 170.7010 293° West 404 465 36,000  Level FlightAware
03:29PM -35.4030 170.6290 293° West 404 465 36,000  Level FlightAware
03:30PM -35.3780 170.5580 293° West 404 465 36,000  Level FlightAware
03:31PM -35.3470 170.4680 293° West 404 465 36,000  Level FlightAware
03:32PM -35.3220 170.3960 293° West 404 465 36,000  Level FlightAware
03:32PM -35.3000 170.3320 293° West 404 465 36,000  Level FlightAware
03:33PM -35.2750 170.2600 293° West 404 465 36,000  Level FlightAware
03:33PM -35.2500 170.1890 293° West 404 465 36,000  Level FlightAware
03:34PM -35.2190 170.0990 293° West 404 465 36,000  Level FlightAware
03:35PM -35.1940 170.0270 293° West 404 465 36,000  Level FlightAware
03:36PM -35.1690 169.9560 293° West 404 465 36,000  Level FlightAware
03:38PM -35.0782 169.7207 295° West  Level FlightAware Approximate
03:39PM -35.0303 169.5971 295° West  Level FlightAware Approximate
03:40PM -34.9822 169.4736 295° West  Level FlightAware Approximate
03:41PM -34.9340 169.3503 295° West  Level FlightAware Approximate
03:42PM -34.8857 169.2271 296° West  Level FlightAware Approximate
03:43PM -34.8372 169.1040 296° West  Level FlightAware Approximate
03:44PM -34.7887 168.9811 296° West  Level FlightAware Approximate
03:45PM -34.7399 168.8584 296° West  Level FlightAware Approximate
03:46PM -34.6911 168.7357 296° West  Level FlightAware Approximate
03:47PM -34.6422 168.6133 296° West  Level FlightAware Approximate
03:48PM -34.5931 168.4910 296° West  Level FlightAware Approximate
03:49PM -34.5439 168.3688 296° West  Level FlightAware Approximate
03:50PM -34.4946 168.2467 296° West  Level FlightAware Approximate
03:51PM -34.4452 168.1249 296° West  Level FlightAware Approximate
03:52PM -34.3956 168.0031 296° West  Level FlightAware Approximate
03:53PM -34.3460 167.8815 296° West  Level FlightAware Approximate
03:54PM -34.2962 167.7601 296° West  Level FlightAware Approximate
03:55PM -34.2463 167.6387 296° West  Level FlightAware Approximate
03:56PM -34.1962 167.5176 297° West  Level FlightAware Approximate
03:57PM -34.1461 167.3965 297° West  Level FlightAware Approximate
03:58PM -34.0958 167.2757 297° West  Level FlightAware Approximate
03:59PM -34.0454 167.1549 297° West  Level FlightAware Approximate
04:00PM -33.9949 167.0343 297° West  Level FlightAware Approximate
04:01PM -33.9443 166.9139 297° West  Level FlightAware Approximate
04:02PM -33.8936 166.7936 297° West  Level FlightAware Approximate
04:03PM -33.8427 166.6734 297° West  Level FlightAware Approximate
04:04PM -33.7917 166.5534 297° West  Level FlightAware Approximate
04:05PM -33.7406 166.4335 297° West  Level FlightAware Approximate
04:06PM -33.6894 166.3138 297° West  Level FlightAware Approximate
04:07PM -33.6381 166.1942 297° West  Level FlightAware Approximate
04:08PM -33.5867 166.0748 297° West  Level FlightAware Approximate
04:09PM -33.5351 165.9554 297° West  Level FlightAware Approximate
04:10PM -33.4835 165.8363 297° West  Level FlightAware Approximate
04:11PM -33.4317 165.7173 298° West  Level FlightAware Approximate
04:12PM -33.3798 165.5984 298° West  Level FlightAware Approximate
04:13PM -33.3278 165.4796 298° West  Level FlightAware Approximate
04:14PM -33.2757 165.3610 298° West  Level FlightAware Approximate
04:15PM -33.2234 165.2426 298° West  Level FlightAware Approximate
04:16PM -33.1711 165.1243 298° West  Level FlightAware Approximate
04:17PM -33.1186 165.0061 298° West  Level FlightAware Approximate
04:18PM -33.0661 164.8881 298° West  Level FlightAware Approximate
04:19PM -33.0134 164.7702 298° West  Level FlightAware Approximate
04:20PM -32.9606 164.6524 298° West  Level FlightAware Approximate
04:21PM -32.9077 164.5348 298° West  Level FlightAware Approximate
04:22PM -32.8547 164.4174 298° West  Level FlightAware Approximate
04:23PM -32.8016 164.3000 298° West  Level FlightAware Approximate
04:24PM -32.7483 164.1828 298° West  Level FlightAware Approximate
04:25PM -32.6950 164.0658 298° West  Level FlightAware Approximate
04:26PM -32.6416 163.9489 298° West  Level FlightAware Approximate
04:27PM -32.5880 163.8321 299° West  Level FlightAware Approximate
04:28PM -32.5344 163.7155 299° West  Level FlightAware Approximate
04:29PM -32.4806 163.5990 299° West  Level FlightAware Approximate
04:30PM -32.4267 163.4826 299° West  Level FlightAware Approximate
04:31PM -32.3727 163.3664 299° West  Level FlightAware Approximate
04:32PM -32.3186 163.2504 299° West  Level FlightAware Approximate
04:33PM -32.2645 163.1344 299° West  Level FlightAware Approximate
04:34PM -32.2102 163.0186 299° West  Level FlightAware Approximate
04:35PM -32.1559 162.9025 299° West  Level FlightAware Approximate
04:36PM -32.1018 162.7868 299° West  Level FlightAware Approximate
04:37PM -32.0476 162.6712 299° West  Level FlightAware Approximate
04:38PM -31.9932 162.5557 299° West  Level FlightAware Approximate
04:39PM -31.9387 162.4404 299° West  Level FlightAware Approximate
04:40PM -31.8842 162.3251 299° West  Level FlightAware Approximate
04:41PM -31.8295 162.2101 299° West  Level FlightAware Approximate
04:42PM -31.7747 162.0951 299° West  Level FlightAware Approximate
04:43PM -31.7198 161.9803 299° West  Level FlightAware Approximate
04:44PM -31.6649 161.8657 299° West  Level FlightAware Approximate
04:45PM -31.6098 161.7511 299° West  Level FlightAware Approximate
04:46PM -31.5546 161.6368 299° West  Level FlightAware Approximate
04:47PM -31.4993 161.5225 300° West  Level FlightAware Approximate
04:48PM -31.4439 161.4084 300° West  Level FlightAware Approximate
04:49PM -31.3884 161.2944 300° West  Level FlightAware Approximate
04:50PM -31.3328 161.1806 300° West  Level FlightAware Approximate
04:51PM -31.2771 161.0668 300° West  Level FlightAware Approximate
04:52PM -31.2214 160.9533 300° West  Level FlightAware Approximate
04:53PM -31.1655 160.8398 300° West  Level FlightAware Approximate
04:54PM -31.1095 160.7265 300° West  Level FlightAware Approximate
04:55PM -31.0534 160.6133 300° West  Level FlightAware Approximate
04:56PM -30.9972 160.5003 300° West  Level FlightAware Approximate
04:57PM -30.9409 160.3874 300° West  Level FlightAware Approximate
04:58PM -30.8845 160.2746 300° West  Level FlightAware Approximate
04:59PM -30.8281 160.1619 300° West  Level FlightAware Approximate
05:00PM -30.7715 160.0494 300° West  Level FlightAware Approximate
05:01PM -30.7148 159.9370 300° West  Level FlightAware Approximate
05:02PM -30.6580 159.8248 300° West  Level FlightAware Approximate
05:03PM -30.6012 159.7127 300° West  Level FlightAware Approximate
05:04PM -30.5442 159.6007 301° West  Level FlightAware Approximate
05:05PM -30.4871 159.4888 301° West  Level FlightAware Approximate
05:06PM -30.4300 159.3771 301° West  Level FlightAware Approximate
05:07PM -30.3727 159.2655 301° West  Level FlightAware Approximate
05:08PM -30.3154 159.1541 301° West  Level FlightAware Approximate
05:09PM -30.2579 159.0427 301° West  Level FlightAware Approximate
05:10PM -30.2004 158.9315 301° West  Level FlightAware Approximate
05:11PM -30.1428 158.8205 301° West  Level FlightAware Approximate
05:12PM -30.0851 158.7095 301° West  Level FlightAware Approximate
05:13PM -30.0273 158.5987 301° West  Level FlightAware Approximate
05:14PM -29.9694 158.4880 301° West  Level FlightAware Approximate
05:15PM -29.9114 158.3775 301° West  Level FlightAware Approximate
05:16PM -29.8533 158.2670 301° West  Level FlightAware Approximate
05:17PM -29.7951 158.1568 301° West  Level FlightAware Approximate
05:18PM -29.7368 158.0466 301° West  Level FlightAware Approximate
05:19PM -29.6784 157.9365 301° West  Level FlightAware Approximate
05:20PM -29.6200 157.8266 301° West  Level FlightAware Approximate
05:21PM -29.5614 157.7168 301° West  Level FlightAware Approximate
05:22PM -29.5028 157.6072 302° West  Level FlightAware Approximate
05:22PM -29.6767 157.9248 302° West 358 412 38,300  Level Aus ATC (RADAR)
05:23PM -29.4441 157.4977 302° West  Level FlightAware Approximate
05:23PM -29.6616 157.8996 305° West 364 419 38,300  Level Aus ATC (RADAR)
05:23PM -29.6354 157.8481 300° West 361 415 38,300  Level Aus ATC (RADAR)
05:24PM -29.5910 157.7646 301° West 362 417 38,300  Level Aus ATC (RADAR)
05:25PM -29.5470 157.6869 303° West 359 413 38,300  Level Aus ATC (RADAR)
05:26PM -29.4868 157.5764 302° West 363 418 38,300  Level Aus ATC (RADAR)
05:26PM -29.4674 157.5427 303° West 365 420 38,300  Level Aus ATC (RADAR)
05:27PM -29.4358 157.4828 301° West 365 420 38,300  Level Aus ATC (RADAR)
05:28PM -29.3909 157.3965 301° West 366 421 38,300  Level Aus ATC (RADAR)
05:28PM -29.3577 157.3371 303° West 368 423 38,300  Level Aus ATC (RADAR)
05:29PM -29.3150 157.2591 302° West 371 427 38,300 -300 Level Aus ATC (RADAR)
05:29PM -29.2924 157.2157 301° West 371 427 38,000 -360 Descending Aus ATC (RADAR)
05:30PM -29.2639 157.1640 302° West 371 427 38,000  Level Aus ATC (RADAR)
05:31PM -29.2052 157.0518 301° West 368 423 38,000  Level Aus ATC (RADAR)
05:31PM -29.1866 157.0174 302° West 369 425 38,000  Level Aus ATC (RADAR)
05:32PM -29.1536 156.9578 302° West 368 423 38,000  Level Aus ATC (RADAR)
05:33PM -29.1068 156.8717 302° West 368 423 38,000  Level Aus ATC (RADAR)
05:33PM -29.0748 156.8123 302° West 365 420 38,000  Level Aus ATC (RADAR)
05:34PM -29.0289 156.7278 302° West 365 420 38,000  Level Aus ATC (RADAR)
05:34PM -29.0096 156.6946 304° West 365 420 38,000  Level Aus ATC (RADAR)
05:35PM -28.9771 156.6360 302° West 363 418 38,000  Level Aus ATC (RADAR)
05:36PM -28.9168 156.5274 302° West 364 419 38,000 60 Level Aus ATC (RADAR)
05:37PM -28.8753 156.4519 302° West 363 418 38,200 180 Climbing Aus ATC (RADAR)
05:38PM -28.8303 156.3684 302° West 361 415 38,300 60 Climbing Aus ATC (RADAR)
05:38PM -28.8165 156.3434 302° West 362 417 38,300  Level Aus ATC (RADAR)
05:39PM -28.7837 156.2861 303° West 360 414 38,300  Level Aus ATC (RADAR)
05:39PM -28.7388 156.2038 302° West 357 411 38,300  Level Aus ATC (RADAR)
05:40PM -28.6978 156.1300 302° West 358 412 38,300 -60 Level Aus ATC (RADAR)
05:41PM -28.6384 156.0237 302° West 356 410 38,200  Descending Aus ATC (RADAR)
05:42PM -28.6160 155.9828 302° West 357 411 38,300 60 Climbing Aus ATC (RADAR)
05:42PM -28.5896 155.9340 302° West 354 407 38,300  Level Aus ATC (RADAR)
05:43PM -28.5388 155.8442 303° West 358 412 38,300  Level Aus ATC (RADAR)
05:44PM -28.5115 155.7955 302° West 357 411 38,300  Level Aus ATC (RADAR)
05:44PM -28.4608 155.7065 303° West 357 411 38,300  Level Aus ATC (RADAR)
05:45PM -28.4468 155.6823 303° West 357 411 38,300 -180 Level Aus ATC (RADAR)
05:45PM -28.4205 155.6339 302° West 354 407 38,200  Descending Aus ATC (RADAR)
05:46PM -28.3568 155.5211 303° West 356 410 38,300 60 Climbing Aus ATC (RADAR)
05:47PM -28.3434 155.4968 302° West 355 409 38,300  Level Aus ATC (RADAR)
05:47PM -28.3161 155.4484 303° West 356 410 38,300 -120 Level Aus ATC (RADAR)
05:48PM -28.2659 155.3597 303° West 358 412 38,200  Descending Aus ATC (RADAR)
05:49PM -28.2246 155.2871 303° West 356 410 38,300 60 Climbing Aus ATC (RADAR)
05:50PM -28.1790 155.2057 302° West 358 412 38,300  Level Aus ATC (RADAR)
05:50PM -28.1648 155.1817 304° West 357 411 38,300  Level Aus ATC (RADAR)
05:50PM -28.1371 155.1331 303° West 359 413 38,300 -480 Level Aus ATC (RADAR)
05:50PM -28.1400 155.1350 303° West 364 419 38,000 -360 Descending FlightAware
05:51PM -28.1000 155.0680 304° West 365 420 38,000 180 Level FlightAware
05:52PM -28.0587 154.9954 304° West 359 413 38,300  Climbing Aus ATC (RADAR)
05:52PM -28.0610 154.9950 304° West 364 419 38,000 -240 Descending FlightAware
05:52PM -28.0312 154.9470 304° West 357 411 38,200 -120 Climbing Aus ATC (RADAR)
05:53PM -28.0050 154.9000 304° West 357 411 37,900 -1,860 Descending FlightAware
05:53PM -27.9833 154.8635 304° West 336 387 36,500 -3,360 Descending Aus ATC (RADAR)
05:54PM -27.9572 154.8167 302° West 349 402 35,100 -2,760 Descending Aus ATC (RADAR)
05:54PM -27.9570 154.8180 302° West 354 407 34,900 1,140 Descending FlightAware
05:54PM -27.9310 154.7660 299° West 349 402 36,000 -3,420 Climbing FlightAware
05:55PM -27.8979 154.7137 299° West 366 421 31,500 -5,160 Descending Aus ATC (RADAR)
05:55PM -27.8780 154.6790 299° West 354 407 31,700 -2,400 Climbing FlightAware
05:56PM -27.8350 154.6040 303° West 373 429 28,700 -3,120 Descending FlightAware
05:57PM -27.8010 154.5450 303° West 359 413 27,800 -1,380 Descending FlightAware
05:57PM -27.7764 154.5040 303° West 355 409 27,400 -1,800 Descending Aus ATC (RADAR)
05:57PM -27.7560 154.4680 303° West 352 405 26,300 -2,460 Descending FlightAware
05:58PM -27.7280 154.4180 302° West 353 406 24,900 -2,400 Descending FlightAware
05:58PM -27.7013 154.3733 302° West 348 400 24,000 -2,400 Descending Aus ATC (RADAR)
05:59PM -27.6850 154.3440 302° West 350 403 23,100 -2,100 Descending FlightAware
05:59PM -27.6500 154.2720 299° West 339 390 21,700 -1,560 Descending FlightAware
06:00PM -27.6356 154.2394 299° West 338 389 21,500 -1,140 Descending Aus ATC (RADAR)
06:00PM -27.6251 154.2154 296° West 338 389 21,100 -2,160 Descending Aus ATC (RADAR)
06:00PM -27.6280 154.2220 296° West 338 389 20,900 -2,220 Descending FlightAware
06:01PM -27.6038 154.1669 296° West 345 397 20,000 -2,100 Descending Aus ATC (RADAR)
06:01PM -27.5980 154.1530 296° West 349 402 19,500 -1,860 Descending FlightAware
06:02PM -27.5600 154.0680 297° West 358 412 18,100 -1,500 Descending FlightAware
06:02PM -27.5444 154.0347 297° West 353 406 17,800 -1,740 Descending Aus ATC (RADAR)
06:02PM -27.5330 154.0080 297° West 354 407 17,100 -1,740 Descending FlightAware
06:02PM -27.5182 153.9767 297° West 351 404 16,800 -1,740 Descending Aus ATC (RADAR)
06:03PM -27.5000 153.9360 297° West 349 402 15,800 -2,100 Descending FlightAware
06:03PM -27.4780 153.8873 297° West 347 399 14,900 -2,100 Descending Aus ATC (RADAR)
06:04PM -27.4670 153.8630 297° West 346 398 14,300 -2,880 Descending Aus ATC (RADAR)
06:04PM -27.4660 153.8600 297° West 352 405 14,100 -2,040 Descending FlightAware
06:04PM -27.4447 153.8137 297° West 348 400 13,300 -1,980 Descending Aus ATC (RADAR)
06:04PM -27.4370 153.7950 297° West 351 404 12,800 -1,980 Descending FlightAware
06:05PM -27.4090 153.7340 297° West 342 394 11,600 -1,680 Descending FlightAware
06:05PM -27.4047 153.7249 297° West 342 394 11,600 -1,860 Level Aus ATC (RADAR)
06:06PM -27.3835 153.6778 297° West 333 383 10,600 -2,340 Descending Aus ATC (RADAR)
06:06PM -27.3760 153.6600 297° West 334 384 10,000 -2,460 Descending FlightAware
06:06PM -27.3590 153.6230 297° West 339 390 9,100 -1,800 Descending FlightAware
06:06PM -27.3470 153.5980 298° West 344 396 8,800 -1,140 Descending FlightAware
06:07PM -27.3338 153.5687 298° West 336 387 8,500 -1,440 Descending Aus ATC (RADAR)
06:07PM -27.3270 153.5520 298° West 330 380 8,100 -2,160 Descending FlightAware
06:07PM -27.3100 153.5150 297° West 330 380 7,200 -2,400 Descending FlightAware
06:08PM -27.2990 153.4900 296° West 335 386 6,500 -2,580 Descending FlightAware
06:08PM -27.2780 153.4440 297° West 335 386 5,300 -1,800 Descending FlightAware
06:08PM -27.2640 153.4144 297° West 332 382 5,100 -1,020 Descending Aus ATC (RADAR)
06:09PM -27.2570 153.3980 297° West 315 362 4,800 -660 Descending FlightAware
06:09PM -27.2410 153.3650 299° West 292 336 4,700 -660 Descending FlightAware
06:09PM -27.2240 153.3250 296° West 282 325 4,200 -1,140 Descending FlightAware
06:10PM -27.2090 153.2900 296° West 276 318 3,700 -1,080 Descending FlightAware
06:10PM -27.2080 153.2790 276° West 271 312 3,600 -540 Descending FlightAware
06:11PM -27.2120 153.2310 265° West 247 284 3,300 -540 Descending FlightAware
06:11PM -27.2160 153.2200 248° West 240 276 3,200 -1,200 Descending FlightAware
06:11PM -27.2300 153.2080 217° Southwest 229 264 2,800 -1,200 Descending FlightAware
06:12PM -27.2600 153.2000 193° South 209 241 2,300 -1,080 Descending FlightAware
06:12PM -27.2760 153.1900 193° South 197 227 1,900 -600 Descending FlightAware
06:12PM -27.2791 153.1883 193° South 206 237 2,100 -360 Climbing Aus ATC (RADAR)
06:12PM -27.2910 153.1820 193° South 197 227 1,800 -1,680 Descending Aus ATC (RADAR)
06:12PM -27.2900 153.1820 193° South 183 211 1,600 -1,320 Descending FlightAware
06:13PM -27.3130 153.1700 205° Southwest 155 178 1,100 -900 Descending FlightAware
06:13PM -27.3280 153.1610 208° Southwest 143 165 800 -720 Descending FlightAware
06:13PM -27.3390 153.1550 206° Southwest 139 160 600 -360 Descending FlightAware
06:14PM -27.3504 153.1485 206° Southwest 140 161 600 -720 Level Aus ATC (RADAR)
06:14PM -27.3540 153.1460 206° Southwest 136 157 300 -900 Descending FlightAware
06:14PM -27.3680 153.1380 206° Southwest 138 159 -480 Descending FlightAware
06:14PM -27.3703 153.1367 206° Southwest 138 159 100 3,000 Climbing Aus ATC (RADAR)
06:15PM -27.3840 153.1290 207° Southwest 105 121 -240 Descending FlightAware
06:15PM -27.3930 153.1240 206° Southwest 61 70  Level FlightAware
06:16PM -27.3990 153.1210 204° Southwest 45 52  Level FlightAware
06:16PM -27.4020 153.1180 222° Southwest 23 26  Level FlightAware